Time;durP1;ratioP1;P1;durP2;ratioP2;P2;SDS_P1;SDS_P2;PMS_P1;PMS_P2;Temp;Humidity;BMP_temperature;BMP_pressure;BME280_temperature;BME280_humidity;BME280_pressure;Samples;Min_cycle;Max_cycle;Signal;HPM_P1;HPM_P2
2022/03/13 00:00:53;;;;;;;20.10;10.48;;;;;;;9.07;35.15;99968.88;4989130;28;20519;-81
2022/03/13 00:03:22;;;;;;;20.35;10.23;;;;;;;9.11;35.22;99974.78;5017755;28;20056;-81
2022/03/13 00:05:51;;;;;;;20.58;10.18;;;;;;;9.08;35.01;99967.06;5031146;28;20107;-81
2022/03/13 00:08:31;;;;;;;19.88;10.93;;;;;;;9.00;36.29;99964.19;5043929;28;20038;-82
2022/03/13 00:11:17;;;;;;;16.50;9.85;;;;;;;8.93;36.31;99971.81;4985436;28;20050;-81
2022/03/13 00:13:50;;;;;;;16.20;9.63;;;;;;;9.03;34.65;99971.88;4982880;28;20049;-81
2022/03/13 00:16:18;;;;;;;18.30;10.40;;;;;;;9.01;33.94;99973.84;5029207;28;20065;-81
2022/03/13 00:18:48;;;;;;;17.30;8.68;;;;;;;9.02;33.76;99976.34;5000924;28;20070;-81
2022/03/13 00:21:19;;;;;;;20.20;9.32;;;;;;;9.01;33.63;99971.19;5012041;28;20041;-81
2022/03/13 00:23:48;;;;;;;17.98;9.35;;;;;;;9.01;33.33;99971.19;5020147;28;20127;-82
2022/03/13 00:26:16;;;;;;;19.17;9.13;;;;;;;8.97;33.18;99980.34;5042104;28;20048;-81
2022/03/13 00:28:44;;;;;;;23.02;9.90;;;;;;;8.96;33.16;99978.66;4994929;28;20049;-82
2022/03/13 00:31:11;;;;;;;18.85;9.13;;;;;;;8.96;32.87;99970.72;5015243;28;20052;-81
2022/03/13 00:33:39;;;;;;;18.10;9.20;;;;;;;8.95;32.82;99974.31;5010706;28;20041;-81
2022/03/13 00:36:06;;;;;;;17.42;9.38;;;;;;;8.93;32.80;99971.81;5012596;28;20553;-81
2022/03/13 00:38:33;;;;;;;15.52;8.98;;;;;;;8.91;32.78;99989.63;5016673;28;20049;-81
2022/03/13 00:41:01;;;;;;;20.23;9.82;;;;;;;8.91;32.70;99976.38;4987885;28;20038;-81
2022/03/13 00:43:28;;;;;;;18.10;10.20;;;;;;;8.84;32.32;99977.81;4987630;28;20042;-81
2022/03/13 00:45:55;;;;;;;19.33;10.13;;;;;;;8.85;32.36;99971.53;5002904;28;20050;-81
2022/03/13 00:48:25;;;;;;;14.35;8.75;;;;;;;8.83;32.37;99968.22;4990639;28;20417;-81
2022/03/13 00:50:51;;;;;;;17.90;9.40;;;;;;;8.78;32.66;99975.66;4974689;28;20042;-81
2022/03/13 00:53:18;;;;;;;17.77;9.88;;;;;;;8.73;32.53;99970.72;4975979;28;20516;-81
2022/03/13 00:55:45;;;;;;;16.30;9.50;;;;;;;8.74;32.51;99969.75;4993154;28;20567;-82
2022/03/13 00:58:13;;;;;;;17.95;9.48;;;;;;;8.76;32.46;99964.34;4991537;28;20052;-81
2022/03/13 01:00:40;;;;;;;19.95;9.35;;;;;;;8.73;33.07;99965.44;4990363;28;20041;-81
2022/03/13 01:03:10;;;;;;;19.45;8.90;;;;;;;8.68;33.26;99963.16;5023419;28;20077;-81
2022/03/13 01:05:37;;;;;;;16.92;8.93;;;;;;;8.58;32.93;99964.81;4989524;28;20046;-82
2022/03/13 01:08:04;;;;;;;15.70;9.13;;;;;;;8.65;33.14;99962.53;4989571;28;20111;-81
2022/03/13 01:10:31;;;;;;;18.27;9.50;;;;;;;8.63;33.26;99959.19;4988231;28;20092;-81
2022/03/13 01:12:58;;;;;;;15.23;9.02;;;;;;;8.64;32.92;99968.78;4982761;28;20050;-81
2022/03/13 01:15:26;;;;;;;16.85;9.57;;;;;;;8.62;32.98;99965.41;4991394;28;20049;-81
2022/03/13 01:17:53;;;;;;;16.75;9.15;;;;;;;8.54;33.12;99960.72;4991119;28;20507;-81
2022/03/13 01:20:21;;;;;;;15.43;9.32;;;;;;;8.59;32.54;99966.50;4980601;28;20045;-81
2022/03/13 01:22:48;;;;;;;17.38;10.10;;;;;;;8.45;32.71;99964.94;4977389;28;20046;-81
2022/03/13 01:25:16;;;;;;;24.00;9.05;;;;;;;8.51;32.73;99958.31;5008434;28;20095;-81
2022/03/13 01:27:45;;;;;;;18.08;9.38;;;;;;;8.52;32.43;99953.88;5010496;28;20485;-81
2022/03/13 01:30:14;;;;;;;17.98;9.57;;;;;;;8.52;32.74;99952.06;4971209;28;20052;-81
2022/03/13 01:32:42;;;;;;;14.48;8.65;;;;;;;8.50;32.80;99950.50;4986995;28;20134;-81
2022/03/13 01:35:09;;;;;;;16.13;8.98;;;;;;;8.48;32.41;99954.09;4995424;28;20050;-81
2022/03/13 01:37:40;;;;;;;18.73;9.40;;;;;;;8.45;33.09;99954.34;4963001;28;20045;-81
2022/03/13 01:40:17;;;;;;;18.02;9.63;;;;;;;8.30;33.09;99957.31;4936318;28;20058;-81
2022/03/13 01:42:44;;;;;;;16.73;9.23;;;;;;;8.47;32.41;99954.22;4999193;28;20449;-81
2022/03/13 01:45:14;;;;;;;17.10;9.23;;;;;;;8.35;32.81;99948.06;4966670;28;20055;-81
2022/03/13 01:47:40;;;;;;;22.05;10.20;;;;;;;8.32;33.00;99948.31;4995484;28;20383;-81
2022/03/13 01:50:09;;;;;;;16.08;9.15;;;;;;;8.34;32.77;99942.88;5005583;28;20053;-81
2022/03/13 01:52:39;;;;;;;17.20;9.10;;;;;;;8.34;32.76;99953.47;4965521;28;20501;-81
2022/03/13 01:55:06;;;;;;;19.90;8.90;;;;;;;8.39;32.31;99948.66;4963091;28;20398;-81
2022/03/13 01:57:37;;;;;;;14.93;8.52;;;;;;;8.31;32.52;99940.47;4993568;28;20037;-81
2022/03/13 02:00:07;;;;;;;17.50;8.90;;;;;;;8.30;32.68;99933.50;4972565;28;20092;-81
2022/03/13 02:02:45;;;;;;;16.00;8.80;;;;;;;8.26;32.76;99930.25;4979245;28;20073;-81
2022/03/13 02:05:50;;;;;;;14.57;9.02;;;;;;;8.17;32.73;99933.63;4988178;28;20046;-81
2022/03/13 02:08:21;;;;;;;16.15;8.93;;;;;;;8.27;32.55;99932.78;4877089;28;20046;-81
2022/03/13 02:10:48;;;;;;;18.85;8.98;;;;;;;8.31;32.51;99936.00;4982073;28;20047;-81
2022/03/13 02:13:20;;;;;;;19.08;8.70;;;;;;;8.25;32.77;99931.22;4967922;28;20399;-81
2022/03/13 02:15:47;;;;;;;16.30;8.68;;;;;;;8.27;32.63;99935.44;5014721;28;20033;-81
2022/03/13 02:18:14;;;;;;;12.85;8.35;;;;;;;8.27;32.68;99939.88;5057651;28;20046;-82
2022/03/13 02:20:45;;;;;;;15.40;8.82;;;;;;;8.25;32.27;99931.22;5013231;28;20049;-81
2022/03/13 02:23:28;;;;;;;17.02;9.35;;;;;;;8.14;32.54;99932.03;5008379;28;20053;-81
2022/03/13 02:26:02;;;;;;;18.38;9.23;;;;;;;8.22;32.66;99942.88;4920941;28;20053;-81
2022/03/13 02:28:31;;;;;;;19.77;9.32;;;;;;;8.20;32.55;99938.66;4975631;28;20505;-81
2022/03/13 02:31:02;;;;;;;15.43;8.70;;;;;;;8.11;32.81;99929.63;5007563;28;20057;-81
2022/03/13 02:33:30;;;;;;;16.25;9.70;;;;;;;8.13;32.66;99935.63;4986889;28;20128;-81
2022/03/13 02:36:01;;;;;;;16.25;8.65;;;;;;;8.11;32.83;99934.91;4964735;28;20093;-81
2022/03/13 02:38:36;;;;;;;13.38;8.07;;;;;;;8.03;32.97;99924.91;5001128;28;20065;-81
2022/03/13 02:41:02;;;;;;;17.90;8.83;;;;;;;8.03;33.48;99924.91;4986314;28;20047;-82
2022/03/13 02:43:29;;;;;;;16.98;9.05;;;;;;;8.00;33.64;99930.44;4972743;28;20441;-81
2022/03/13 02:45:56;;;;;;;17.85;10.07;;;;;;;7.98;34.33;99931.50;4980836;28;20043;-81
2022/03/13 02:48:23;;;;;;;20.35;10.07;;;;;;;7.96;35.22;99933.44;5006349;28;20124;-81
2022/03/13 02:50:51;;;;;;;23.33;11.25;;;;;;;7.93;36.03;99925.72;4954558;28;20049;-81
2022/03/13 02:53:18;;;;;;;20.38;11.40;;;;;;;7.90;36.67;99928.63;5000805;28;20050;-81
2022/03/13 02:55:45;;;;;;;18.35;10.73;;;;;;;7.86;36.75;99922.72;4990924;28;20041;-81
2022/03/13 02:58:12;;;;;;;22.00;10.68;;;;;;;7.85;36.70;99928.13;4984035;28;20041;-81
2022/03/13 03:00:50;;;;;;;16.60;9.45;;;;;;;7.78;34.99;99918.00;4951630;28;20047;-81
2022/03/13 03:03:18;;;;;;;16.83;9.68;;;;;;;7.83;34.47;99915.84;4952679;28;20046;-81
2022/03/13 03:05:46;;;;;;;16.60;9.00;;;;;;;7.86;33.71;99919.22;4975087;28;20048;-81
2022/03/13 03:08:13;;;;;;;19.05;8.82;;;;;;;7.82;33.61;99923.91;4993931;28;20567;-81
2022/03/13 03:10:40;;;;;;;20.02;8.65;;;;;;;7.78;33.45;99925.09;5031890;28;20128;-81
2022/03/13 03:13:11;;;;;;;15.15;8.75;;;;;;;7.77;33.71;99923.41;4992153;28;20053;-82
2022/03/13 03:15:38;;;;;;;16.67;8.48;;;;;;;7.74;33.58;99924.50;5007435;28;20037;-81
2022/03/13 03:18:09;;;;;;;14.95;7.72;;;;;;;7.75;33.39;99918.22;5006580;28;20080;-81
2022/03/13 03:20:37;;;;;;;16.00;8.10;;;;;;;7.75;33.41;99920.88;5021462;28;20046;-81
2022/03/13 03:23:04;;;;;;;13.38;8.40;;;;;;;7.74;33.13;99931.59;4968451;28;20054;-82
2022/03/13 03:25:31;;;;;;;15.52;8.75;;;;;;;7.75;32.97;99934.09;5000152;28;20038;-81
2022/03/13 03:27:58;;;;;;;18.00;9.60;;;;;;;7.74;32.90;99931.59;4974409;28;20054;-81
2022/03/13 03:30:27;;;;;;;14.38;8.63;;;;;;;7.72;33.19;99925.56;4986315;28;20491;-81
2022/03/13 03:32:54;;;;;;;12.30;7.88;;;;;;;7.69;33.27;99923.16;4993380;28;20042;-81
2022/03/13 03:35:24;;;;;;;12.85;7.72;;;;;;;7.70;32.94;99932.75;5009434;28;20062;-81
2022/03/13 03:37:53;;;;;;;15.80;8.77;;;;;;;7.69;33.02;99933.72;5007424;28;20042;-81
2022/03/13 03:40:24;;;;;;;14.32;8.43;;;;;;;7.64;33.15;99931.41;4958195;28;20087;-81
2022/03/13 03:42:55;;;;;;;16.50;8.43;;;;;;;7.65;33.27;99927.81;4985761;28;20041;-81
2022/03/13 03:45:22;;;;;;;13.93;7.45;;;;;;;7.61;33.17;99937.78;5050012;28;20155;-81
2022/03/13 03:47:49;;;;;;;18.98;9.13;;;;;;;7.59;33.21;99934.41;4997626;28;20492;-81
2022/03/13 03:50:18;;;;;;;14.63;8.48;;;;;;;7.59;32.83;99931.75;5016133;28;20049;-81
2022/03/13 03:52:45;;;;;;;13.55;8.10;;;;;;;7.57;33.13;99930.19;5025307;28;20096;-81
2022/03/13 03:55:12;;;;;;;15.88;7.88;;;;;;;7.56;32.74;99934.63;5035344;28;20061;-81
2022/03/13 03:57:40;;;;;;;14.50;7.82;;;;;;;7.56;32.95;99925.88;5012298;28;20107;-81
2022/03/13 04:00:08;;;;;;;16.02;8.27;;;;;;;7.55;32.77;99927.66;5020677;28;20472;-81
2022/03/13 04:02:42;;;;;;;15.63;8.60;;;;;;;7.53;32.67;99926.94;5007856;28;20073;-81
2022/03/13 04:05:10;;;;;;;14.25;8.73;;;;;;;7.47;32.88;99927.38;4966544;28;20128;-81
2022/03/13 04:07:37;;;;;;;15.80;7.60;;;;;;;7.45;32.87;99926.66;4995412;28;20500;-81
2022/03/13 04:10:05;;;;;;;22.25;11.27;;;;;;;7.44;33.06;99924.13;4994805;28;20061;-82
2022/03/13 04:12:34;;;;;;;26.17;9.38;;;;;;;7.45;33.08;99923.16;5004916;28;20048;-81
2022/03/13 04:15:02;;;;;;;16.15;8.85;;;;;;;7.44;33.24;99935.53;4972329;28;20057;-81
2022/03/13 04:17:29;;;;;;;14.30;8.00;;;;;;;7.39;33.12;99922.66;4980617;28;20046;-81
2022/03/13 04:19:56;;;;;;;14.52;7.90;;;;;;;7.37;32.62;99929.84;4989350;28;20125;-82
2022/03/13 04:22:22;;;;;;;12.07;8.00;;;;;;;7.36;32.44;99930.00;4988842;28;20871;-81
2022/03/13 04:24:50;;;;;;;16.35;8.52;;;;;;;7.30;32.59;99930.41;5026267;28;20046;-81
2022/03/13 04:27:17;;;;;;;15.52;8.55;;;;;;;7.25;33.24;99920.22;5013261;28;20041;-81
2022/03/13 04:29:44;;;;;;;16.00;8.30;;;;;;;7.17;33.00;99923.41;4989485;28;20045;-82
2022/03/13 04:32:11;;;;;;;13.05;7.93;;;;;;;7.25;32.67;99929.91;4977976;28;20046;-81
2022/03/13 04:34:37;;;;;;;14.48;9.30;;;;;;;7.20;32.86;99929.41;4977012;28;20084;-81
2022/03/13 04:37:05;;;;;;;16.25;8.70;;;;;;;7.17;32.48;99928.69;4998140;28;20041;-81
2022/03/13 04:39:35;;;;;;;17.80;9.10;;;;;;;7.09;32.69;99932.84;5008249;28;20050;-81
2022/03/13 04:42:08;;;;;;;13.52;8.07;;;;;;;7.07;32.36;99926.81;4991579;28;20073;-81
2022/03/13 04:44:35;;;;;;;15.85;8.68;;;;;;;7.00;32.81;99931.72;5050952;28;20104;-81
2022/03/13 04:47:02;;;;;;;14.05;7.82;;;;;;;7.00;32.75;99934.34;4997670;28;20050;-81
2022/03/13 04:49:29;;;;;;;15.88;8.75;;;;;;;6.98;32.79;99925.69;5007935;28;20045;-81
2022/03/13 04:51:55;;;;;;;14.80;8.23;;;;;;;6.90;32.94;99925.41;5029438;28;20044;-81
2022/03/13 04:54:23;;;;;;;11.98;7.43;;;;;;;6.94;32.97;99924.22;4984647;28;20042;-81
2022/03/13 04:56:50;;;;;;;15.35;8.38;;;;;;;6.87;32.96;99928.25;4964463;28;20042;-81
2022/03/13 04:59:17;;;;;;;15.98;8.45;;;;;;;6.88;33.09;99935.22;4992004;28;20050;-81
2022/03/13 05:01:44;;;;;;;12.88;8.57;;;;;;;6.89;33.24;99939.53;4966784;28;20117;-81
2022/03/13 05:04:14;;;;;;;13.95;8.13;;;;;;;6.85;33.12;99940.72;4974172;28;20082;-81
2022/03/13 05:06:43;;;;;;;17.70;9.13;;;;;;;6.84;33.19;99936.38;4990833;28;20670;-81
2022/03/13 05:09:10;;;;;;;14.35;8.55;;;;;;;6.82;33.10;99944.44;4980664;28;20066;-81
2022/03/13 05:11:38;;;;;;;15.98;8.10;;;;;;;6.81;33.29;99945.38;4966958;28;20417;-81
2022/03/13 05:14:05;;;;;;;13.65;8.23;;;;;;;6.78;33.32;99937.69;4957132;28;20052;-81
2022/03/13 05:16:32;;;;;;;12.75;7.60;;;;;;;6.80;33.12;99948.13;4990254;28;20526;-81
2022/03/13 05:19:01;;;;;;;17.45;7.93;;;;;;;6.74;33.02;99944.09;4992374;28;20045;-82
2022/03/13 05:21:28;;;;;;;13.98;8.23;;;;;;;6.72;33.41;99957.44;5010232;28;20049;-81
2022/03/13 05:23:55;;;;;;;14.70;8.27;;;;;;;6.72;33.11;99948.69;5013121;28;20120;-81
2022/03/13 05:26:21;;;;;;;12.02;7.90;;;;;;;6.65;33.16;99957.97;5016478;28;20037;-81
2022/03/13 05:28:48;;;;;;;14.52;8.50;;;;;;;6.62;33.34;99952.91;4991765;28;20037;-82
2022/03/13 05:31:15;;;;;;;16.95;8.98;;;;;;;6.59;33.59;99950.47;4988632;28;20712;-81
2022/03/13 05:33:42;;;;;;;15.88;9.27;;;;;;;6.60;33.51;99952.16;4986705;28;20451;-81
2022/03/13 05:36:09;;;;;;;15.65;8.27;;;;;;;6.59;33.11;99953.97;4965271;28;20050;-81
2022/03/13 05:38:37;;;;;;;15.73;8.25;;;;;;;6.45;33.23;99956.72;4964632;28;20401;-81
2022/03/13 05:41:04;;;;;;;14.38;7.30;;;;;;;6.44;33.31;99963.78;4996778;28;20050;-81
2022/03/13 05:43:32;;;;;;;16.00;8.18;;;;;;;6.35;33.43;99967.06;4990076;28;20045;-81
2022/03/13 05:45:59;;;;;;;15.32;7.75;;;;;;;6.36;33.58;99966.13;4987654;28;20073;-81
2022/03/13 05:48:26;;;;;;;15.82;9.02;;;;;;;6.39;33.29;99971.19;4980157;28;20045;-81
2022/03/13 05:50:53;;;;;;;12.52;7.68;;;;;;;6.34;33.20;99970.66;5007008;28;20048;-81
2022/03/13 05:53:20;;;;;;;16.50;8.10;;;;;;;6.28;33.33;99968.41;5002228;28;20042;-81
2022/03/13 05:55:46;;;;;;;13.27;7.53;;;;;;;6.24;33.63;99975.72;4985159;28;20045;-81
2022/03/13 05:58:14;;;;;;;15.32;8.27;;;;;;;6.28;33.64;99971.06;4977679;28;20056;-81
2022/03/13 06:00:41;;;;;;;18.20;9.05;;;;;;;6.22;33.19;99980.25;4978809;28;20093;-81
2022/03/13 06:03:08;;;;;;;16.08;8.10;;;;;;;6.18;33.46;99980.53;4986403;28;20517;-81
2022/03/13 06:05:35;;;;;;;14.35;8.68;;;;;;;6.14;33.35;99982.56;4980746;28;20057;-81
2022/03/13 06:08:03;;;;;;;13.88;8.30;;;;;;;6.15;33.38;99984.22;4969397;28;20050;-81
2022/03/13 06:10:30;;;;;;;14.15;7.75;;;;;;;6.05;33.12;99989.28;4973468;28;20129;-81
2022/03/13 06:12:56;;;;;;;15.15;8.00;;;;;;;6.04;33.17;99998.16;4990295;28;20054;-81
2022/03/13 06:15:23;;;;;;;16.38;8.15;;;;;;;5.99;33.47;100007.31;5008866;28;20049;-81
2022/03/13 06:17:51;;;;;;;15.98;7.78;;;;;;;5.98;33.38;100006.47;4994512;28;20046;-81
2022/03/13 06:20:18;;;;;;;15.23;9.27;;;;;;;5.99;33.63;100000.25;4977092;28;20065;-81
2022/03/13 06:22:47;;;;;;;15.13;7.85;;;;;;;6.01;33.53;100008.06;4991734;28;20056;-81
2022/03/13 06:25:15;;;;;;;20.20;9.30;;;;;;;6.03;33.69;100014.06;4987123;28;20390;-81
2022/03/13 06:27:42;;;;;;;14.10;8.60;;;;;;;6.02;33.79;100017.66;5002274;28;20060;-81
2022/03/13 06:30:13;;;;;;;14.00;7.60;;;;;;;5.98;33.60;100013.50;4982140;28;20046;-82
2022/03/13 06:32:45;;;;;;;16.85;7.18;;;;;;;5.98;34.08;100026.69;4994042;28;20053;-81
2022/03/13 06:35:13;;;;;;;13.40;7.10;;;;;;;6.01;33.90;100019.44;4978283;28;20045;-81
2022/03/13 06:37:41;;;;;;;13.13;7.50;;;;;;;6.05;33.84;100022.72;4977443;28;20134;-81
2022/03/13 06:40:19;;;;;;;13.50;8.07;;;;;;;5.99;34.29;100017.84;4957320;28;20452;-80
2022/03/13 06:42:50;;;;;;;15.13;7.60;;;;;;;6.09;34.10;100029.47;4992085;28;20046;-78
2022/03/13 06:45:17;;;;;;;14.05;8.02;;;;;;;6.11;34.18;100019.69;5005758;28;20057;-78
2022/03/13 06:47:46;;;;;;;15.40;8.48;;;;;;;6.15;33.87;100026.41;4987479;28;20054;-78
2022/03/13 06:50:17;;;;;;;17.92;8.35;;;;;;;6.15;34.00;100033.50;4988293;28;20042;-78
2022/03/13 06:52:45;;;;;;;15.95;8.35;;;;;;;6.15;33.99;100026.41;5008066;28;20084;-78
2022/03/13 06:55:13;;;;;;;12.25;7.40;;;;;;;6.16;33.91;100033.41;4999272;28;20400;-78
2022/03/13 06:57:41;;;;;;;12.95;8.13;;;;;;;6.17;33.82;100026.31;5002924;28;20049;-78
2022/03/13 07:00:08;;;;;;;15.55;8.70;;;;;;;6.00;34.41;100033.56;4989982;28;20109;-78
2022/03/13 07:02:35;;;;;;;16.05;8.43;;;;;;;6.11;34.18;100037.25;4968376;28;20110;-78
2022/03/13 07:05:02;;;;;;;19.35;8.95;;;;;;;6.06;34.12;100029.69;4969120;28;20053;-78
2022/03/13 07:07:29;;;;;;;19.40;8.48;;;;;;;5.93;34.20;100029.63;5011113;28;20444;-78
2022/03/13 07:09:57;;;;;;;12.65;8.40;;;;;;;5.96;34.54;100033.88;5017057;28;20396;-78
2022/03/13 07:12:25;;;;;;;17.15;8.00;;;;;;;5.91;34.45;100038.59;5008911;28;20447;-78
2022/03/13 07:14:57;;;;;;;12.65;8.23;;;;;;;5.93;34.30;100037.53;4968135;28;20073;-78
2022/03/13 07:17:24;;;;;;;16.50;7.57;;;;;;;5.95;34.38;100040.09;5018742;28;20053;-80
2022/03/13 07:19:51;;;;;;;14.80;7.80;;;;;;;5.94;34.36;100043.66;5030396;28;20512;-78
2022/03/13 07:22:18;;;;;;;14.70;7.82;;;;;;;5.87;34.11;100046.66;5029327;28;20052;-78
2022/03/13 07:24:46;;;;;;;14.18;7.10;;;;;;;5.93;34.14;100042.81;4984190;28;20042;-77
2022/03/13 07:27:16;;;;;;;14.07;8.13;;;;;;;5.95;34.25;100045.34;5037414;28;20052;-77
2022/03/13 07:29:42;;;;;;;13.63;7.85;;;;;;;5.96;34.18;100039.16;5021947;28;20048;-77
2022/03/13 07:32:09;;;;;;;17.50;8.13;;;;;;;5.91;34.42;100041.22;5030464;28;20380;-78
2022/03/13 07:34:37;;;;;;;11.55;7.32;;;;;;;5.93;34.36;100034.91;5068739;28;20498;-77
2022/03/13 07:37:04;;;;;;;17.33;8.18;;;;;;;5.87;34.58;100033.47;5056703;28;20047;-77
2022/03/13 07:39:31;;;;;;;17.02;8.65;;;;;;;5.91;34.23;100038.59;5039439;28;20118;-78
2022/03/13 07:41:58;;;;;;;12.77;7.65;;;;;;;5.79;34.72;100045.50;5068897;28;20040;-78
2022/03/13 07:44:25;;;;;;;15.88;8.60;;;;;;;5.95;34.15;100034.81;5057049;28;20090;-78
2022/03/13 07:46:52;;;;;;;14.20;7.45;;;;;;;5.76;34.89;100041.25;5043718;28;20399;-78
2022/03/13 07:49:19;;;;;;;14.13;7.68;;;;;;;5.81;34.85;100035.69;5029882;28;20057;-78
2022/03/13 07:51:47;;;;;;;15.02;7.70;;;;;;;5.79;35.22;100027.03;5012400;28;20092;-77
2022/03/13 07:54:14;;;;;;;15.95;7.85;;;;;;;5.86;34.98;100029.16;5014801;28;20132;-77
2022/03/13 07:56:42;;;;;;;12.05;6.80;;;;;;;5.82;35.26;100037.38;5008313;28;20076;-78
2022/03/13 07:59:08;;;;;;;15.48;7.82;;;;;;;5.81;35.08;100028.63;5002748;28;20046;-77
2022/03/13 08:01:35;;;;;;;14.98;8.13;;;;;;;5.96;34.87;100024.19;4992755;28;20077;-77
2022/03/13 08:04:09;;;;;;;12.90;7.65;;;;;;;5.98;34.76;100022.28;5012118;28;20057;-77
2022/03/13 08:06:39;;;;;;;14.88;7.72;;;;;;;5.91;34.97;100028.03;4966225;28;20129;-77
2022/03/13 08:09:07;;;;;;;14.20;8.57;;;;;;;5.96;34.77;100023.34;4973507;28;20140;-77
2022/03/13 08:11:38;;;;;;;12.88;7.82;;;;;;;6.20;34.96;100024.31;5026822;28;20044;-78
2022/03/13 08:14:07;;;;;;;14.35;7.72;;;;;;;6.01;35.41;100019.44;5008515;28;20409;-78
2022/03/13 08:16:35;;;;;;;15.35;8.15;;;;;;;6.05;35.34;100022.72;5028308;28;20045;-77
2022/03/13 08:19:02;;;;;;;11.60;7.40;;;;;;;6.05;35.36;100022.72;5007318;28;20696;-77
2022/03/13 08:21:29;;;;;;;15.43;7.85;;;;;;;6.06;35.48;100030.53;5013836;28;20040;-77
2022/03/13 08:23:57;;;;;;;15.50;7.40;;;;;;;6.14;35.32;100022.09;5041247;28;20055;-78
2022/03/13 08:26:24;;;;;;;17.00;8.98;;;;;;;6.06;35.67;100030.53;5029172;28;20386;-78
2022/03/13 08:28:51;;;;;;;13.52;7.88;;;;;;;6.12;35.35;100031.91;5032565;28;20055;-78
2022/03/13 08:31:17;;;;;;;14.38;7.25;;;;;;;6.16;35.51;100022.00;5027431;28;20044;-77
2022/03/13 08:33:45;;;;;;;11.52;7.75;;;;;;;6.22;35.43;100027.69;4997474;28;20060;-77
2022/03/13 08:36:12;;;;;;;13.15;7.30;;;;;;;6.27;35.45;100024.75;5007849;28;20554;-78
2022/03/13 08:38:39;;;;;;;13.45;7.50;;;;;;;6.30;35.38;100025.38;4992296;28;20054;-78
2022/03/13 08:41:06;;;;;;;16.70;7.57;;;;;;;6.37;35.11;100025.00;4967649;28;20634;-78
2022/03/13 08:43:33;;;;;;;13.43;7.65;;;;;;;6.40;35.38;100020.34;4965981;28;20455;-77
2022/03/13 08:46:00;;;;;;;12.73;7.70;;;;;;;6.37;35.35;100020.56;5007973;28;20053;-77
2022/03/13 08:48:28;;;;;;;14.10;8.13;;;;;;;6.26;35.65;100016.00;5027767;28;20132;-77
2022/03/13 08:50:56;;;;;;;14.30;7.35;;;;;;;6.39;35.88;100010.75;5000386;28;20128;-77
2022/03/13 08:53:23;;;;;;;18.80;8.02;;;;;;;6.44;35.83;100018.34;4997419;28;20370;-77
2022/03/13 08:55:52;;;;;;;14.57;7.78;;;;;;;6.35;35.69;100013.69;5006399;28;20057;-77
2022/03/13 08:58:21;;;;;;;13.20;7.88;;;;;;;6.55;35.88;100013.16;5014899;28;20046;-78
2022/03/13 09:00:50;;;;;;;16.40;8.52;;;;;;;6.57;35.88;100011.28;5034686;28;20564;-79
2022/03/13 09:03:18;;;;;;;14.48;7.32;;;;;;;6.59;35.73;100009.38;5043387;28;20042;-77
2022/03/13 09:05:46;;;;;;;12.13;6.97;;;;;;;6.53;35.87;100007.16;5005180;28;20561;-78
2022/03/13 09:08:13;;;;;;;13.02;7.70;;;;;;;6.62;35.92;99997.78;5027992;28;20485;-77
2022/03/13 09:10:40;;;;;;;15.68;8.25;;;;;;;6.58;36.22;99994.47;5028778;28;20045;-78
2022/03/13 09:13:07;;;;;;;13.43;7.45;;;;;;;6.63;36.13;99999.44;5005595;28;20046;-77
2022/03/13 09:15:34;;;;;;;14.05;7.75;;;;;;;6.64;36.08;99993.22;5025615;28;20082;-77
2022/03/13 09:18:02;;;;;;;13.63;7.50;;;;;;;6.64;35.81;99994.06;5007744;28;20045;-78
2022/03/13 09:20:29;;;;;;;12.27;7.60;;;;;;;6.71;36.09;99990.03;5046251;28;20044;-77
2022/03/13 09:22:56;;;;;;;12.10;7.22;;;;;;;6.77;36.13;99993.19;5012769;28;20045;-77
2022/03/13 09:25:23;;;;;;;12.95;7.32;;;;;;;6.80;35.79;99987.72;5011864;28;20072;-78
2022/03/13 09:27:52;;;;;;;15.40;8.05;;;;;;;6.86;36.01;99989.91;5028144;28;20791;-78
2022/03/13 09:30:18;;;;;;;13.55;7.32;;;;;;;6.85;36.16;99980.31;5032622;28;20049;-78
2022/03/13 09:32:45;;;;;;;13.15;6.97;;;;;;;6.86;36.44;99985.47;5017607;28;20722;-78
2022/03/13 09:35:12;;;;;;;13.77;8.25;;;;;;;6.92;36.28;99981.56;5013780;28;20096;-78
2022/03/13 09:37:39;;;;;;;11.98;7.22;;;;;;;6.95;36.29;99986.63;5043684;28;20465;-78
2022/03/13 09:40:15;;;;;;;16.17;8.40;;;;;;;6.96;36.30;99983.03;5030091;28;20433;-78
2022/03/13 09:42:42;;;;;;;14.75;8.77;;;;;;;7.02;36.05;99992.31;5017723;28;20061;-78
2022/03/13 09:45:11;;;;;;;12.82;7.90;;;;;;;7.06;36.10;99996.44;5006275;28;20056;-78
2022/03/13 09:47:38;;;;;;;13.95;7.00;;;;;;;7.12;36.43;99993.34;5018445;28;20056;-78
2022/03/13 09:50:10;;;;;;;16.08;8.73;;;;;;;7.08;35.91;99992.72;5004192;28;20053;-81
2022/03/13 09:52:40;;;;;;;14.30;7.57;;;;;;;7.13;36.48;99990.59;5035991;28;20039;-78
2022/03/13 09:55:10;;;;;;;11.90;7.88;;;;;;;7.22;36.56;99996.16;5007180;28;20057;-78
2022/03/13 09:57:40;;;;;;;14.85;8.23;;;;;;;7.28;36.14;99986.03;5022740;28;20042;-78
2022/03/13 10:00:08;;;;;;;13.45;8.70;;;;;;;7.26;36.50;99985.28;5017940;28;20046;-78
2022/03/13 10:02:38;;;;;;;15.35;8.57;;;;;;;7.27;36.56;99979.03;4978940;28;20057;-78
2022/03/13 10:05:08;;;;;;;12.45;7.70;;;;;;;7.30;36.47;99985.88;5001064;28;20046;-78
2022/03/13 10:07:53;;;;;;;13.73;7.93;;;;;;;7.23;36.29;99988.16;5000001;28;20046;-78
2022/03/13 10:10:24;;;;;;;17.23;8.25;;;;;;;7.34;36.61;99987.38;5004739;28;20064;-78
2022/03/13 10:12:53;;;;;;;13.83;7.97;;;;;;;7.33;36.58;99997.09;5003688;28;20488;-78
2022/03/13 10:15:19;;;;;;;14.82;8.25;;;;;;;7.39;36.53;99994.00;4995620;28;20555;-78
2022/03/13 10:17:48;;;;;;;12.95;7.82;;;;;;;7.40;36.36;99986.91;5022325;28;20054;-78
2022/03/13 10:20:19;;;;;;;16.30;8.55;;;;;;;7.47;36.56;99974.09;5004291;28;20478;-78
2022/03/13 10:22:49;;;;;;;17.67;8.95;;;;;;;7.52;36.23;99974.59;4990943;28;20373;-78
2022/03/13 10:25:33;;;;;;;15.25;7.45;;;;;;;7.43;36.37;99967.34;4992043;28;20056;-78
2022/03/13 10:28:13;;;;;;;15.48;9.10;;;;;;;7.45;36.55;99962.81;4973589;28;20476;-79
2022/03/13 10:30:44;;;;;;;15.43;8.85;;;;;;;7.53;36.36;99958.66;5017495;28;20456;-78
2022/03/13 10:33:11;;;;;;;15.57;9.00;;;;;;;7.58;36.95;99953.00;4989491;28;20649;-79
2022/03/13 10:35:38;;;;;;;16.25;8.65;;;;;;;7.60;36.61;99941.34;4992466;28;20050;-78
2022/03/13 10:38:17;;;;;;;16.23;8.93;;;;;;;7.54;36.72;99930.44;4995644;28;20128;-78
2022/03/13 10:40:55;;;;;;;15.82;9.07;;;;;;;7.61;36.96;99918.44;4974677;28;20042;-78
2022/03/13 10:43:26;;;;;;;15.27;9.10;;;;;;;7.78;37.17;99918.00;5011353;28;20128;-82
2022/03/13 10:45:54;;;;;;;17.65;9.07;;;;;;;7.77;38.08;99920.78;4991871;28;20061;-78
2022/03/13 10:48:33;;;;;;;19.02;9.85;;;;;;;7.91;38.00;99925.00;4996867;28;20041;-78
2022/03/13 10:51:04;;;;;;;17.38;9.48;;;;;;;7.96;37.37;99921.06;5012623;28;20052;-78
2022/03/13 10:53:32;;;;;;;18.75;10.02;;;;;;;8.09;37.48;99926.25;4988843;28;20053;-78
2022/03/13 10:56:10;;;;;;;20.75;10.32;;;;;;;8.10;39.73;99932.41;4987455;28;20042;-78
2022/03/13 10:58:39;;;;;;;19.92;9.48;;;;;;;8.11;38.00;99926.97;4960563;28;20489;-78
2022/03/13 11:01:11;;;;;;;21.80;11.05;;;;;;;8.13;37.44;99921.56;5006352;28;20037;-78
2022/03/13 11:04:17;;;;;;;18.25;10.18;;;;;;;8.10;37.76;99917.34;4981125;28;20050;-78
2022/03/13 11:06:44;;;;;;;19.27;10.30;;;;;;;8.33;37.88;99909.44;4920629;28;20047;-78
2022/03/13 11:09:11;;;;;;;22.83;11.27;;;;;;;8.49;38.34;99917.91;5000926;28;20049;-78
2022/03/13 11:11:39;;;;;;;23.02;11.32;;;;;;;8.41;38.09;99918.50;5008469;28;20046;-78
2022/03/13 11:14:07;;;;;;;20.60;10.75;;;;;;;8.39;37.93;99916.91;5003363;28;20552;-78
2022/03/13 11:16:33;;;;;;;19.30;11.27;;;;;;;8.57;38.27;99919.94;4992773;28;20661;-78
2022/03/13 11:19:08;;;;;;;20.95;10.85;;;;;;;8.59;37.89;99907.44;5004553;28;20062;-78
2022/03/13 11:21:35;;;;;;;19.35;11.80;;;;;;;8.66;38.01;99901.53;4996596;28;20053;-78
2022/03/13 11:24:02;;;;;;;21.33;11.70;;;;;;;8.58;38.16;99895.19;4968915;28;20066;-78
2022/03/13 11:26:30;;;;;;;21.70;12.00;;;;;;;8.73;38.11;99898.38;4991194;28;20080;-79
2022/03/13 11:28:58;;;;;;;21.92;12.35;;;;;;;8.74;39.08;99895.63;4992320;28;20078;-79
2022/03/13 11:31:40;;;;;;;24.08;12.80;;;;;;;8.87;38.06;99890.19;4980438;28;20044;-78
2022/03/13 11:34:12;;;;;;;22.48;12.32;;;;;;;8.78;38.09;99894.44;4959686;28;20091;-78
2022/03/13 11:36:43;;;;;;;22.33;11.90;;;;;;;8.90;38.10;99893.44;5028090;28;20108;-78